TAF KRIC
KRIC 090520Z 0906/1006 35005KT P6SM SKC FM091500 VRB03KT P6SM SCT250 FM092100 18006KT P6SM BKN250=
METAR KRIC
WC KRIC
WS KRIC
WV KRIC